Terminal Aerodrome Forecast
Issued by NWS Grand Forks, ND

Home | Current Version | Previous Version | Graphics & Text | Print | Product List | Glossary On
Versions: 1 2 3 4 5 6 7 8 9 10 11 12 13 14 15
290
FTUS43 KFGF 221133
TAFFAR
TAF
KFAR 221133Z 2212/2312 03010KT P6SM SCT004 BKN015
     FM221400 05009KT P6SM BKN015
     FM222000 14013KT P6SM BKN045
     FM230100 19008KT P6SM SCT120
     FM230300 32011KT P6SM BKN035
     FM230500 32012KT P6SM BKN015=

USA.gov is the U.S. government's official web portal to all federal, state and local government web resources and services.